Time;durP1;ratioP1;P1;durP2;ratioP2;P2;SDS_P1;SDS_P2;PMS_P1;PMS_P2;Temp;Humidity;BMP_temperature;BMP_pressure;BME280_temperature;BME280_humidity;BME280_pressure;Samples;Min_cycle;Max_cycle;Signal;HPM_P1;HPM_P2
2022/01/22 00:02:06;;;;;;;12.13;4.43;;;;;;;-4.28;100.00;96726.38;5116846;27;20497;-66
2022/01/22 00:04:34;;;;;;;10.80;5.13;;;;;;;-4.27;100.00;96717.78;5131905;27;20039;-67
2022/01/22 00:07:02;;;;;;;14.83;4.20;;;;;;;-4.24;100.00;96717.72;5133650;27;20048;-66
2022/01/22 00:10:00;;;;;;;7.83;4.00;;;;;;;-4.26;100.00;96707.47;5133104;27;20046;-66
2022/01/22 00:12:43;;;;;;;9.73;4.30;;;;;;;-4.26;100.00;96706.63;5132929;27;20215;-66
2022/01/22 00:15:15;;;;;;;9.77;3.53;;;;;;;-4.30;100.00;96710.16;5134708;27;20054;-66
2022/01/22 00:17:42;;;;;;;12.90;4.90;;;;;;;-4.36;100.00;96705.22;5133829;27;20092;-66
2022/01/22 00:20:11;;;;;;;11.17;4.67;;;;;;;-4.40;100.00;96722.41;5132885;27;20089;-66
2022/01/22 00:22:38;;;;;;;9.57;4.10;;;;;;;-4.40;100.00;96704.44;5132922;27;20119;-66
2022/01/22 00:25:08;;;;;;;9.80;3.73;;;;;;;-4.39;100.00;96710.44;5133047;27;20058;-66
2022/01/22 00:27:36;;;;;;;8.93;4.70;;;;;;;-4.38;100.00;96710.38;5131783;27;20146;-66
2022/01/22 00:30:05;;;;;;;11.33;4.10;;;;;;;-4.38;100.00;96714.66;5113415;27;20098;-66
2022/01/22 00:32:32;;;;;;;8.40;4.10;;;;;;;-4.32;100.00;96719.66;5114537;27;20038;-67
2022/01/22 00:34:59;;;;;;;8.70;3.43;;;;;;;-4.36;100.00;96725.75;5133036;27;20047;-66
2022/01/22 00:37:26;;;;;;;11.67;5.40;;;;;;;-4.33;100.00;96721.38;5132735;27;20077;-67
2022/01/22 00:39:53;;;;;;;12.77;4.93;;;;;;;-4.30;100.00;96705.03;5132564;27;20125;-67
2022/01/22 00:42:22;;;;;;;10.20;5.10;;;;;;;-4.29;100.00;96716.97;5132746;27;20051;-66
2022/01/22 00:44:51;;;;;;;15.53;4.00;;;;;;;-4.27;100.00;96710.09;5113828;27;20508;-66
2022/01/22 00:47:19;;;;;;;10.17;3.83;;;;;;;-4.27;100.00;96703.25;5114032;27;20046;-67
2022/01/22 00:49:46;;;;;;;10.83;4.23;;;;;;;-4.30;100.00;96710.16;5132490;27;20402;-66
2022/01/22 00:52:14;;;;;;;8.03;4.07;;;;;;;-4.33;100.00;96705.97;5132388;27;20974;-66
2022/01/22 00:54:41;;;;;;;10.77;4.10;;;;;;;-4.30;100.00;96712.72;5132652;27;20042;-68
2022/01/22 00:57:08;;;;;;;11.87;4.63;;;;;;;-4.29;100.00;96701.56;5114289;27;20050;-68
2022/01/22 00:59:36;;;;;;;10.43;3.70;;;;;;;-4.29;100.00;96709.28;5133828;27;20054;-67
2022/01/22 01:02:04;;;;;;;7.80;4.53;;;;;;;-4.32;100.00;96707.63;5114034;27;20043;-66
2022/01/22 01:04:34;;;;;;;10.07;4.17;;;;;;;-4.33;100.00;96716.22;5113729;27;20062;-66
2022/01/22 01:07:01;;;;;;;12.67;4.73;;;;;;;-4.28;100.00;96713.53;5114249;27;20050;-66
2022/01/22 01:09:29;;;;;;;8.50;4.60;;;;;;;-4.24;100.00;96720.28;5114075;27;20123;-66
2022/01/22 01:12:01;;;;;;;13.67;4.67;;;;;;;-4.28;100.00;96716.94;5113342;27;20071;-67
2022/01/22 01:14:35;;;;;;;8.00;3.37;;;;;;;-4.29;100.00;96724.66;5112783;27;20036;-66
2022/01/22 01:17:12;;;;;;;;;;;;;;;-4.33;100.00;96720.50;5114253;27;20761;-66
2022/01/22 01:33:32;;;;;;;7.13;3.03;;;;;;;-4.39;100.00;96715.56;5112471;27;20045;-67
2022/01/22 01:36:00;;;;;;;10.73;3.63;;;;;;;-4.46;100.00;96704.59;5113466;27;20154;-67
2022/01/22 01:38:27;;;;;;;11.60;4.53;;;;;;;-4.46;100.00;96724.31;5113008;27;20050;-67
2022/01/22 01:41:01;;;;;;;12.00;4.00;;;;;;;-4.53;100.00;96721.06;5113387;27;20079;-67
2022/01/22 01:43:34;;;;;;;7.53;4.17;;;;;;;-4.51;100.00;96715.91;5114078;27;20510;-67
2022/01/22 01:46:20;;;;;;;5.53;2.80;;;;;;;-4.51;100.00;96718.47;5132076;27;20135;-67
2022/01/22 01:48:49;;;;;;;9.40;3.23;;;;;;;-4.52;100.00;96711.63;5112794;27;20043;-67
2022/01/22 01:51:16;;;;;;;10.47;3.80;;;;;;;-4.52;100.00;96727.88;5113150;27;20035;-67
2022/01/22 01:53:53;;;;;;;10.30;3.90;;;;;;;-4.48;100.00;96719.19;5112862;27;20047;-66
2022/01/22 01:59:08;;;;;;;14.00;5.00;;;;;;;-4.50;100.00;96720.94;5131438;27;20039;-67
2022/01/22 02:01:35;;;;;;;11.47;4.37;;;;;;;-4.52;100.00;96725.31;5112437;27;20034;-67
2022/01/22 02:04:05;;;;;;;10.83;4.47;;;;;;;-4.44;100.00;96719.94;5114100;27;20126;-67
2022/01/22 02:06:32;;;;;;;17.50;4.70;;;;;;;-4.42;100.00;96715.63;5113827;27;20103;-67
2022/01/22 02:08:59;;;;;;;9.70;4.53;;;;;;;-4.45;100.00;96715.72;5112806;27;20487;-67
2022/01/22 02:11:29;;;;;;;18.10;6.83;;;;;;;-4.40;100.00;96716.41;5112569;27;20046;-67
2022/01/22 02:23:30;;;;;;;6.87;3.63;;;;;;;-4.44;100.00;96701.97;5112455;27;20433;-66
2022/01/22 02:25:56;;;;;;;10.30;4.43;;;;;;;-4.41;100.00;96701.91;5121236;27;20059;-66
2022/01/22 02:28:24;;;;;;;12.23;3.67;;;;;;;-4.44;100.00;96718.25;5111938;27;20077;-67
2022/01/22 02:30:57;;;;;;;7.83;3.67;;;;;;;-4.43;100.00;96719.09;5112500;27;20399;-66
2022/01/22 02:33:50;;;;;;;6.97;3.47;;;;;;;-4.48;100.00;96715.78;5112246;27;20035;-67
2022/01/22 02:36:22;;;;;;;10.57;4.63;;;;;;;-4.48;100.00;96719.19;5112038;27;20067;-67
2022/01/22 02:38:57;;;;;;;12.00;4.00;;;;;;;-4.43;100.00;96709.66;5112094;27;20352;-68
2022/01/22 02:41:25;;;;;;;11.30;4.63;;;;;;;-4.44;100.00;96714.81;5130565;27;20463;-67
2022/01/22 02:43:54;;;;;;;14.50;5.13;;;;;;;-4.42;100.00;96710.50;5112075;28;20075;-66
2022/01/22 02:46:26;;;;;;;8.73;4.67;;;;;;;-4.46;100.00;96722.56;5130308;27;20063;-66
2022/01/22 02:48:54;;;;;;;13.63;4.80;;;;;;;-4.43;100.00;96719.09;5095066;28;20051;-66
2022/01/22 02:51:22;;;;;;;10.77;4.10;;;;;;;-4.38;100.00;96727.50;5112309;28;20057;-66
2022/01/22 02:53:54;;;;;;;8.63;3.80;;;;;;;-4.42;100.00;96693.38;5112034;28;20039;-66
2022/01/22 02:56:23;;;;;;;13.17;4.97;;;;;;;-4.45;100.00;96718.28;5111998;28;20050;-66
2022/01/22 02:58:50;;;;;;;11.97;5.20;;;;;;;-4.44;100.00;96719.94;5112152;28;20067;-67
2022/01/22 03:01:18;;;;;;;8.53;3.70;;;;;;;-4.43;100.00;96721.66;5112297;28;20034;-67
2022/01/22 03:03:46;;;;;;;10.67;3.80;;;;;;;-4.42;100.00;96721.63;5111866;28;20063;-68
2022/01/22 03:06:14;;;;;;;11.50;4.00;;;;;;;-4.38;100.00;96717.22;5111771;28;20067;-67
2022/01/22 03:08:43;;;;;;;8.50;4.40;;;;;;;-4.42;100.00;96713.91;5112206;28;20491;-67
2022/01/22 03:11:19;;;;;;;16.60;5.13;;;;;;;-4.44;100.00;96725.09;5130360;28;20129;-66
2022/01/22 03:16:49;;;;;;;15.20;4.80;;;;;;;-4.41;100.00;96720.72;5111622;28;20497;-67
2022/01/22 03:19:30;;;;;;;8.48;4.15;;;;;;;-4.42;100.00;96725.91;5111720;28;20046;-67
2022/01/22 03:22:12;;;;;;;10.60;4.00;;;;;;;-4.50;100.00;96713.25;5113179;28;20031;-68
2022/01/22 03:27:27;;;;;;;10.07;4.10;;;;;;;-4.50;100.00;96707.31;5132389;28;20127;-66
2022/01/22 03:29:57;;;;;;;10.63;6.13;;;;;;;-4.53;100.00;96712.50;5112116;28;20051;-67
2022/01/22 03:32:27;;;;;;;11.57;4.50;;;;;;;-4.54;100.00;96719.34;5130060;28;20383;-67
2022/01/22 03:34:57;;;;;;;9.50;5.20;;;;;;;-4.54;100.00;96726.22;5112794;27;20032;-66
2022/01/22 03:37:27;;;;;;;13.50;5.30;;;;;;;-4.53;100.00;96731.31;5115895;27;20043;-66
2022/01/22 03:39:55;;;;;;;9.30;4.63;;;;;;;-4.49;100.00;96716.69;5115916;27;20039;-66
2022/01/22 03:42:22;;;;;;;15.00;5.27;;;;;;;-4.55;100.00;96722.81;5117351;27;20039;-66
2022/01/22 03:44:51;;;;;;;11.20;4.80;;;;;;;-4.51;100.00;96709.00;5115982;27;20046;-67
2022/01/22 03:47:19;;;;;;;11.30;4.60;;;;;;;-4.54;100.00;96731.38;5116018;27;20545;-67
2022/01/22 03:49:46;;;;;;;11.70;5.03;;;;;;;-4.51;100.00;96726.97;5115568;27;20075;-66
2022/01/22 03:52:17;;;;;;;15.30;5.33;;;;;;;-4.56;100.00;96718.56;5115987;27;20402;-67
2022/01/22 03:54:45;;;;;;;10.50;5.30;;;;;;;-4.54;100.00;96729.63;5115638;27;20039;-67
2022/01/22 03:57:16;;;;;;;8.77;4.77;;;;;;;-4.49;100.00;96730.34;5115718;27;20046;-67
2022/01/22 03:59:47;;;;;;;8.80;4.87;;;;;;;-4.52;100.00;96725.31;5115570;27;20035;-65
2022/01/22 04:02:56;;;;;;;14.20;5.47;;;;;;;-4.54;100.00;96726.22;5115632;27;20047;-66
2022/01/22 04:05:22;;;;;;;15.63;5.07;;;;;;;-4.57;100.00;96728.88;5115347;27;20040;-66
2022/01/22 04:10:36;;;;;;;11.57;6.73;;;;;;;-4.52;100.00;96724.44;5110283;27;20080;-66
2022/01/22 04:13:06;;;;;;;10.50;5.07;;;;;;;-4.52;100.00;96727.88;5135325;27;20182;-67
2022/01/22 04:15:37;;;;;;;13.87;6.07;;;;;;;-4.53;100.00;96726.19;5115679;27;20051;-67
2022/01/22 04:26:31;;;;;;;10.27;5.13;;;;;;;-4.59;100.00;96733.19;5133448;27;20468;-66
2022/01/22 04:28:58;;;;;;;16.43;6.33;;;;;;;-4.64;100.00;96729.91;5133300;27;20471;-66
2022/01/22 04:31:25;;;;;;;11.03;4.27;;;;;;;-4.62;100.00;96746.13;5134412;27;20544;-66
2022/01/22 04:33:53;;;;;;;9.87;4.80;;;;;;;-4.59;100.00;96743.44;5135013;27;20088;-66
2022/01/22 04:36:20;;;;;;;10.87;5.60;;;;;;;-4.64;100.00;96738.47;5133449;27;20035;-66
2022/01/22 04:38:48;;;;;;;14.17;4.87;;;;;;;-4.64;100.00;96740.16;5133332;27;20070;-67
2022/01/22 04:41:16;;;;;;;18.37;5.23;;;;;;;-4.66;100.00;96734.22;5134443;27;20039;-66
2022/01/22 04:43:44;;;;;;;12.97;5.23;;;;;;;-4.69;100.00;96740.28;5133992;27;20064;-66
2022/01/22 04:46:19;;;;;;;12.00;5.00;;;;;;;-4.67;100.00;96735.09;5114840;27;20039;-65
2022/01/22 04:49:04;;;;;;;11.53;5.10;;;;;;;-4.70;100.00;96745.44;5114201;27;20415;-66
2022/01/22 04:57:02;;;;;;;11.07;4.03;;;;;;;-4.76;100.00;96759.25;5113292;27;20095;-66
2022/01/22 04:59:29;;;;;;;9.17;4.40;;;;;;;-4.76;100.00;96743.06;5114768;27;20525;-66
2022/01/22 05:01:57;;;;;;;8.90;4.00;;;;;;;-4.82;100.00;96744.03;5097306;27;20559;-65
2022/01/22 05:04:35;;;;;;;13.77;4.80;;;;;;;-4.71;100.00;96743.75;5114623;27;20739;-67
2022/01/22 05:07:15;;;;;;;10.97;4.33;;;;;;;-4.71;100.00;96738.63;5114412;27;20490;-67
2022/01/22 05:10:01;;;;;;;8.93;4.47;;;;;;;-4.77;100.00;96743.91;5114383;27;20492;-67
2022/01/22 05:12:31;;;;;;;10.37;5.07;;;;;;;-4.83;100.00;96734.63;5114279;27;20035;-67
2022/01/22 05:14:58;;;;;;;11.33;4.33;;;;;;;-4.83;100.00;96737.22;5114804;27;20050;-67
2022/01/22 05:17:26;;;;;;;11.60;4.87;;;;;;;-4.79;100.00;96733.72;5116022;27;20043;-67
2022/01/22 05:20:02;;;;;;;9.87;4.37;;;;;;;-4.79;100.00;96748.25;5115971;27;20050;-67
2022/01/22 05:22:49;;;;;;;11.33;4.00;;;;;;;-4.80;100.00;96729.44;5113673;27;20130;-67
2022/01/22 05:25:20;;;;;;;9.50;3.80;;;;;;;-4.80;100.00;96738.88;5114689;27;20035;-65
2022/01/22 05:28:01;;;;;;;9.93;4.30;;;;;;;-4.75;100.00;96745.56;5114977;27;20127;-66
2022/01/22 05:31:08;;;;;;;9.43;4.67;;;;;;;-4.75;100.00;96732.75;5113603;27;20391;-67
2022/01/22 05:36:57;;;;;;;9.80;4.00;;;;;;;-4.75;100.00;96730.19;5115321;27;20519;-66
2022/01/22 05:39:28;;;;;;;12.70;5.43;;;;;;;-4.73;100.00;96742.97;5115383;27;20415;-67
2022/01/22 05:41:56;;;;;;;8.10;4.03;;;;;;;-4.78;100.00;96735.38;5131718;27;20442;-67
2022/01/22 05:44:23;;;;;;;9.53;4.10;;;;;;;-4.79;100.00;96735.44;5113599;27;20437;-66
2022/01/22 05:46:52;;;;;;;13.13;3.83;;;;;;;-4.83;100.00;96736.38;5131784;27;20039;-67
2022/01/22 05:49:20;;;;;;;9.70;3.97;;;;;;;-4.80;100.00;96734.56;5131737;27;20377;-67
2022/01/22 05:51:49;;;;;;;11.60;4.23;;;;;;;-4.77;100.00;96738.78;5131187;27;20364;-67
2022/01/22 05:54:44;;;;;;;9.87;4.47;;;;;;;-4.87;100.00;96735.59;5096655;27;20096;-67
2022/01/22 05:59:53;;;;;;;10.97;4.97;;;;;;;-4.85;100.00;96733.84;5113809;27;20089;-67
2022/01/22 06:02:21;;;;;;;17.67;5.30;;;;;;;-4.77;100.00;96739.63;5115272;27;20084;-67
2022/01/22 06:04:53;;;;;;;13.20;5.27;;;;;;;-4.74;100.00;96728.44;5113432;27;20427;-67
2022/01/22 06:07:22;;;;;;;13.17;5.50;;;;;;;-4.83;100.00;96714.13;5113772;27;20050;-67
2022/01/22 06:10:05;;;;;;;15.60;5.37;;;;;;;-4.88;100.00;96715.13;5113243;27;20051;-67
2022/01/22 06:12:44;;;;;;;11.20;5.27;;;;;;;-4.91;100.00;96726.31;5114988;27;20039;-67
2022/01/22 06:15:13;;;;;;;18.83;5.83;;;;;;;-4.84;100.00;96721.88;5114478;27;20050;-67
2022/01/22 06:18:00;;;;;;;27.53;5.97;;;;;;;-4.80;100.00;96726.88;5130510;27;20542;-67
2022/01/22 06:20:27;;;;;;;12.80;5.20;;;;;;;-4.75;100.00;96727.63;5132243;27;20042;-67
2022/01/22 06:22:54;;;;;;;11.60;5.53;;;;;;;-4.63;100.00;96732.44;5114101;27;20053;-67
2022/01/22 06:25:21;;;;;;;12.63;5.77;;;;;;;-4.52;100.00;96747.53;5114623;27;20063;-67
2022/01/22 06:27:50;;;;;;;10.00;4.70;;;;;;;-4.48;99.73;96741.44;5114105;28;20046;-66
2022/01/22 06:30:17;;;;;;;13.47;5.10;;;;;;;-4.37;99.10;96739.44;5114584;27;20518;-67
2022/01/22 06:32:49;;;;;;;17.77;4.83;;;;;;;-4.46;99.18;96737.13;5113242;28;20088;-67
2022/01/22 06:35:18;;;;;;;14.40;6.00;;;;;;;-4.46;98.66;96734.56;5130763;27;20062;-67
2022/01/22 06:37:45;;;;;;;12.30;5.53;;;;;;;-4.41;98.79;96732.72;5114059;28;20556;-67
2022/01/22 06:43:41;;;;;;;8.80;4.38;;;;;;;-4.50;98.45;96749.19;5075263;27;20405;-68
2022/01/22 06:46:25;;;;;;;12.47;5.00;;;;;;;-4.47;98.67;96743.97;5112422;28;20043;-68
2022/01/22 06:49:10;;;;;;;10.07;4.87;;;;;;;-4.32;97.85;96730.72;5112353;28;20055;-67
2022/01/22 06:52:04;;;;;;;13.45;4.63;;;;;;;-4.31;97.30;96737.56;5099463;28;20121;-68
2022/01/22 06:54:31;;;;;;;10.10;4.80;;;;;;;-4.32;97.64;96747.88;5111470;28;20118;-67
2022/01/22 06:56:59;;;;;;;11.87;5.93;;;;;;;-4.40;97.04;96747.22;5112407;28;20043;-68
2022/01/22 06:59:31;;;;;;;13.50;5.47;;;;;;;-4.26;96.80;96745.13;5112458;28;20046;-67
2022/01/22 07:01:58;;;;;;;13.43;5.50;;;;;;;-4.13;97.29;96746.50;5112457;28;20096;-68
2022/01/22 07:04:29;;;;;;;17.70;5.93;;;;;;;-4.13;96.85;96749.88;5112237;28;20452;-66
2022/01/22 07:07:29;;;;;;;11.50;4.63;;;;;;;-4.05;95.91;96736.84;5086782;28;20059;-67
2022/01/22 07:09:56;;;;;;;15.83;5.07;;;;;;;-3.95;95.98;96738.28;5112980;27;20057;-67
2022/01/22 07:12:23;;;;;;;17.70;6.33;;;;;;;-3.85;95.85;96742.25;5115550;27;20359;-67
2022/01/22 07:14:51;;;;;;;15.83;6.47;;;;;;;-3.82;94.78;96744.75;5118190;27;20428;-68
2022/01/22 07:17:20;;;;;;;12.53;5.47;;;;;;;-3.87;94.97;96744.06;5116623;27;20563;-68
2022/01/22 07:19:53;;;;;;;15.47;6.33;;;;;;;-3.80;94.66;96732.72;5113905;28;20040;-67
2022/01/22 07:22:40;;;;;;;10.37;5.00;;;;;;;-3.77;94.61;96742.91;5116028;27;20039;-67
2022/01/22 07:25:26;;;;;;;10.33;5.23;;;;;;;-3.94;94.71;96735.69;5115987;27;20050;-67
2022/01/22 07:27:59;;;;;;;13.40;5.50;;;;;;;-3.85;94.08;96743.13;5116419;27;20039;-67
2022/01/22 07:30:34;;;;;;;9.60;5.53;;;;;;;-3.89;93.90;96740.66;5116721;27;20131;-67
2022/01/22 07:33:07;;;;;;;11.47;5.93;;;;;;;-3.87;93.91;96733.78;5118089;27;20503;-67
2022/01/22 07:35:38;;;;;;;;;;;;;;;-3.72;93.97;96741.03;5134873;27;20062;-68
2022/01/22 07:38:29;;;;;;;21.73;6.53;;;;;;;-3.52;93.80;96741.28;5117829;27;20383;-68
2022/01/22 07:44:41;;;;;;;12.23;4.20;;;;;;;-3.78;92.73;96749.75;5135765;27;20039;-68
2022/01/22 07:47:19;;;;;;;10.90;4.80;;;;;;;-3.78;93.24;96752.34;5118446;27;20042;-67
2022/01/22 07:51:01;;;;;;;14.53;4.70;;;;;;;-3.64;93.09;96759.63;5130566;27;20125;-69
2022/01/22 07:56:50;;;;;;;15.83;5.07;;;;;;;-3.63;91.66;96754.47;5116325;27;20035;-67
2022/01/22 07:59:30;;;;;;;10.17;5.17;;;;;;;-3.56;92.28;96752.53;5134685;27;20383;-68
2022/01/22 08:02:27;;;;;;;16.37;5.67;;;;;;;-3.45;91.84;96756.50;5117248;27;20047;-67
2022/01/22 08:05:39;;;;;;;12.97;6.20;;;;;;;-3.14;91.20;96756.41;5092522;28;20036;-68
2022/01/22 08:08:25;;;;;;;12.07;4.47;;;;;;;-3.20;90.41;96751.44;5133697;27;20053;-68
2022/01/22 08:11:15;;;;;;;17.30;6.10;;;;;;;-3.26;90.76;96756.75;5133901;27;20096;-69
2022/01/22 08:13:42;;;;;;;19.43;9.27;;;;;;;-3.35;90.92;96759.63;5117684;27;20398;-68
2022/01/22 08:16:09;;;;;;;21.20;7.17;;;;;;;-3.38;90.73;96757.16;5135848;27;20097;-68
2022/01/22 08:18:37;;;;;;;16.53;6.77;;;;;;;-3.32;91.45;96752.66;5135937;27;20043;-71
2022/01/22 08:21:09;;;;;;;15.33;6.03;;;;;;;-3.35;91.60;96762.19;5117891;27;20053;-68
2022/01/22 08:24:02;;;;;;;22.10;5.93;;;;;;;-3.54;92.78;96766.22;5118674;27;20383;-69
2022/01/22 08:26:48;;;;;;;18.30;6.00;;;;;;;-3.63;93.59;96769.03;5115507;27;20050;-68
2022/01/22 08:29:23;;;;;;;16.80;6.77;;;;;;;-3.76;94.66;96773.66;5115753;27;20064;-68
2022/01/22 08:32:02;;;;;;;15.70;5.87;;;;;;;-3.83;96.12;96779.88;5115346;27;20103;-69
2022/01/22 08:37:16;;;;;;;10.93;5.23;;;;;;;-3.77;98.05;96768.59;5115151;27;20035;-68
2022/01/22 08:39:43;;;;;;;18.30;5.60;;;;;;;-4.08;98.42;96786.56;5115426;27;20039;-68
2022/01/22 08:42:11;;;;;;;12.50;5.50;;;;;;;-4.06;99.72;96789.09;5115301;27;20043;-68
2022/01/22 08:44:39;;;;;;;13.30;5.60;;;;;;;-4.05;100.00;96790.78;5133590;27;20043;-68
2022/01/22 08:47:08;;;;;;;14.47;5.40;;;;;;;-4.12;100.00;96796.97;5114956;27;20043;-68
2022/01/22 08:49:36;;;;;;;14.53;5.50;;;;;;;-4.11;100.00;96789.22;5111542;28;20047;-67
2022/01/22 08:52:13;;;;;;;17.42;5.65;;;;;;;-4.01;100.00;96787.25;5112101;28;20468;-67
2022/01/22 08:54:43;;;;;;;18.80;6.13;;;;;;;-3.80;100.00;96777.22;5113287;28;20399;-68
2022/01/22 08:57:12;;;;;;;16.90;5.27;;;;;;;-3.69;100.00;96793.16;5111239;28;20571;-68
2022/01/22 08:59:53;;;;;;;15.10;4.73;;;;;;;-3.57;100.00;96781.72;5111123;28;20051;-68
2022/01/22 09:02:20;;;;;;;15.07;5.10;;;;;;;-3.72;100.00;96792.44;5089218;28;20036;-67
2022/01/22 09:05:08;;;;;;;15.10;5.37;;;;;;;-3.69;100.00;96790.59;5060345;28;20051;-74
2022/01/22 09:08:05;;;;;;;14.33;5.93;;;;;;;-3.47;100.00;96790.84;5036923;28;20072;-74
2022/01/22 09:10:54;;;;;;;12.77;4.83;;;;;;;-3.25;100.00;96787.56;5091607;28;20054;-71
2022/01/22 09:13:44;;;;;;;12.87;4.83;;;;;;;-3.20;99.21;96772.88;5092038;28;20040;-72
2022/01/22 09:16:11;;;;;;;21.37;7.33;;;;;;;-3.07;99.34;96774.16;5092172;28;20080;-74
2022/01/22 09:18:38;;;;;;;14.67;5.80;;;;;;;-2.76;98.77;96780.06;5096869;28;20077;-72
2022/01/22 09:21:06;;;;;;;15.13;4.73;;;;;;;-2.73;97.68;96781.69;5110664;28;20040;-73
2022/01/22 09:23:37;;;;;;;15.80;5.77;;;;;;;-2.81;97.03;96781.09;5112206;28;20372;-74
2022/01/22 09:26:13;;;;;;;12.43;4.73;;;;;;;-2.61;96.77;96779.56;5111098;28;20044;-73
2022/01/22 09:28:40;;;;;;;16.40;5.23;;;;;;;-2.90;95.47;96778.78;5090244;28;20116;-73
2022/01/22 09:31:07;;;;;;;14.43;6.27;;;;;;;-2.75;96.60;96776.56;5111172;28;20050;-72
2022/01/22 09:33:35;;;;;;;13.83;5.83;;;;;;;-2.72;95.64;96773.06;5090148;28;20485;-73
2022/01/22 09:36:22;;;;;;;16.77;5.60;;;;;;;-2.86;95.22;96782.94;5089854;28;20032;-74
2022/01/22 09:39:15;;;;;;;13.27;5.27;;;;;;;-2.93;95.83;96781.44;5091035;28;20044;-75
2022/01/22 09:41:56;;;;;;;14.27;4.67;;;;;;;-3.00;95.92;96785.09;5111627;28;20050;-73
2022/01/22 09:44:44;;;;;;;13.97;5.87;;;;;;;-3.09;96.61;96793.13;5078311;28;20047;-72
2022/01/22 09:47:35;;;;;;;12.40;5.43;;;;;;;-3.11;96.93;96794.91;5096842;28;20130;-76
2022/01/22 09:50:25;;;;;;;8.37;5.33;;;;;;;-3.11;97.48;96802.63;5099325;28;20048;-70
2022/01/22 09:53:19;;;;;;;17.40;5.60;;;;;;;-3.00;97.60;96798.81;5097873;28;20490;-72
2022/01/22 09:55:57;;;;;;;12.10;5.40;;;;;;;-2.86;97.72;96791.50;5090369;28;20058;-74
2022/01/22 09:58:42;;;;;;;;;;;;;;;-2.75;96.78;96802.31;5110528;28;20176;-74
2022/01/22 10:01:25;;;;;;;14.33;5.27;;;;;;;-2.70;96.82;96799.59;5109920;28;19919;-72
2022/01/22 10:03:56;;;;;;;12.20;4.80;;;;;;;-2.49;96.26;96796.31;5109478;28;20038;-72
2022/01/22 10:06:32;;;;;;;12.97;4.93;;;;;;;-2.56;96.27;96797.41;5109920;28;20096;-72
2022/01/22 10:09:46;;;;;;;11.50;4.53;;;;;;;-2.52;96.27;96796.44;5081671;28;20583;-73
2022/01/22 10:12:44;;;;;;;10.95;5.38;;;;;;;-2.50;96.22;96802.38;5110358;28;20068;-71
2022/01/22 10:15:45;;;;;;;12.63;6.17;;;;;;;-1.92;95.61;96804.66;5086951;28;20116;-72
2022/01/22 10:18:19;;;;;;;12.70;4.87;;;;;;;-1.74;93.91;96798.88;5109108;28;20046;-73
2022/01/22 10:20:46;;;;;;;13.13;4.67;;;;;;;-2.03;92.39;96796.47;5092296;28;20130;-74
2022/01/22 10:23:23;;;;;;;9.33;4.83;;;;;;;-1.98;93.04;96797.13;5090174;28;20040;-74
2022/01/22 10:25:55;;;;;;;16.43;5.97;;;;;;;-2.12;93.21;96804.50;5090574;28;20407;-72
2022/01/22 10:28:24;;;;;;;13.23;4.90;;;;;;;-2.25;93.01;96798.91;5107008;28;20114;-75
2022/01/22 10:30:58;;;;;;;9.93;4.93;;;;;;;-2.13;93.74;96789.09;5107632;28;20646;-75
2022/01/22 10:34:03;;;;;;;;;;;;;;;-1.93;93.40;96795.25;5110074;28;20054;-74
2022/01/22 10:37:02;;;;;;;15.03;5.53;;;;;;;-1.74;93.59;96790.28;5109321;28;19920;-65
2022/01/22 10:39:46;;;;;;;12.43;5.20;;;;;;;-1.87;92.88;96797.59;5109284;28;20050;-66
2022/01/22 10:42:22;;;;;;;13.00;6.07;;;;;;;-2.17;93.59;96793.50;5109612;28;20100;-66
2022/01/22 10:44:50;;;;;;;12.57;5.27;;;;;;;-2.41;94.15;96790.03;5109692;28;20370;-66
2022/01/22 10:47:25;;;;;;;15.13;6.03;;;;;;;-2.29;95.73;96801.66;5111505;28;20089;-67
2022/01/22 10:49:53;;;;;;;14.57;5.20;;;;;;;-2.20;95.41;96790.22;5119554;28;20112;-66
2022/01/22 10:52:20;;;;;;;11.63;5.67;;;;;;;-2.16;95.12;96792.63;5130426;28;20031;-66
2022/01/22 10:54:47;;;;;;;11.30;5.60;;;;;;;-1.86;95.88;96791.53;5130129;28;20094;-65
2022/01/22 10:57:15;;;;;;;12.83;5.90;;;;;;;-1.67;94.43;96795.19;5130173;28;20035;-66
2022/01/22 10:59:47;;;;;;;14.43;5.53;;;;;;;-1.71;93.75;96791.03;5130753;28;20126;-69
2022/01/22 11:02:14;;;;;;;12.43;6.20;;;;;;;-1.56;93.48;96789.63;5129401;28;20343;-66
2022/01/22 11:04:43;;;;;;;9.63;5.20;;;;;;;-1.49;92.86;96791.91;5130419;28;20466;-65
2022/01/22 11:07:17;;;;;;;13.27;6.57;;;;;;;-1.54;93.10;96798.97;5132206;28;20055;-67
2022/01/22 11:09:45;;;;;;;34.47;6.97;;;;;;;-1.43;92.80;96807.16;5112617;28;20047;-68
2022/01/22 11:12:12;;;;;;;17.00;7.57;;;;;;;-1.42;92.12;96811.41;5128941;28;20051;-68
2022/01/22 11:14:40;;;;;;;12.43;6.70;;;;;;;-1.38;91.69;96809.59;5128121;28;20084;-70
2022/01/22 11:17:08;;;;;;;15.40;6.40;;;;;;;-1.46;91.94;96820.16;5130119;28;20044;-69
2022/01/22 11:19:38;;;;;;;13.70;6.10;;;;;;;-1.77;92.36;96813.59;5130113;28;20103;-67
2022/01/22 11:22:09;;;;;;;15.03;6.27;;;;;;;-1.92;93.01;96824.44;5129878;28;20047;-67
2022/01/22 11:24:39;;;;;;;20.03;7.70;;;;;;;-1.91;93.37;96831.25;5110902;28;20092;-69
2022/01/22 11:27:08;;;;;;;19.73;7.10;;;;;;;-1.74;93.39;96821.22;5128390;28;20047;-67
2022/01/22 11:29:42;;;;;;;18.23;7.23;;;;;;;-1.95;92.98;96816.81;5129839;28;20126;-67
2022/01/22 11:32:12;;;;;;;14.83;7.13;;;;;;;-2.03;93.31;96823.97;5130036;28;20078;-68
2022/01/22 11:34:41;;;;;;;13.93;6.50;;;;;;;-1.89;93.21;96821.75;5129824;28;20062;-72
2022/01/22 11:37:16;;;;;;;16.83;7.77;;;;;;;-1.65;92.49;96826.88;5130030;28;20491;-67
2022/01/22 11:39:43;;;;;;;14.47;7.83;;;;;;;-1.50;91.35;96835.84;5126980;28;20044;-69
2022/01/22 11:42:10;;;;;;;15.90;6.30;;;;;;;-1.36;90.28;96838.72;5130095;28;20133;-65
2022/01/22 11:44:47;;;;;;;13.90;6.97;;;;;;;-1.16;90.05;96828.53;5129984;28;20040;-69
2022/01/22 11:47:16;;;;;;;15.27;6.37;;;;;;;-1.05;88.42;96839.31;5131210;28;20035;-70
2022/01/22 11:50:06;;;;;;;15.10;6.63;;;;;;;-0.98;89.09;96835.59;5131233;28;20104;-68
2022/01/22 11:52:38;;;;;;;9.53;5.37;;;;;;;-1.32;89.04;96851.47;5128921;28;20050;-71
2022/01/22 11:55:11;;;;;;;14.87;7.60;;;;;;;-1.48;90.42;96845.19;5130171;28;20040;-71
2022/01/22 11:57:39;;;;;;;11.75;6.13;;;;;;;-1.80;91.23;96860.09;5132104;27;20046;-67
2022/01/22 12:00:23;;;;;;;11.37;5.33;;;;;;;-1.62;91.85;96865.47;5130512;27;20488;-64
2022/01/22 12:03:22;;;;;;;12.55;6.18;;;;;;;-1.59;91.90;96862.78;5132133;27;20843;-65
2022/01/22 12:06:10;;;;;;;15.33;6.37;;;;;;;-1.48;91.88;96872.72;5131644;27;20050;-65
2022/01/22 12:09:11;;;;;;;12.00;6.40;;;;;;;-1.69;92.43;96876.88;5132151;27;20047;-73
2022/01/22 12:14:55;;;;;;;10.13;5.10;;;;;;;-2.29;95.75;96887.47;5114894;27;20039;-74
2022/01/22 12:18:02;;;;;;;9.10;5.60;;;;;;;-2.57;97.26;96894.41;5130687;27;20039;-75
2022/01/22 12:21:30;;;;;;;10.87;4.87;;;;;;;-2.60;98.98;96891.06;5133785;27;20067;-71
2022/01/22 12:23:53;;;;;;;9.70;5.13;;;;;;;-2.46;99.52;96906.94;5132067;27;20031;-70
2022/01/22 12:26:42;;;;;;;12.13;5.40;;;;;;;-2.31;99.40;96902.16;5133634;27;20047;-69
2022/01/22 12:29:43;;;;;;;10.63;5.10;;;;;;;-2.37;98.60;96906.66;5133199;27;20051;-66
2022/01/22 12:32:25;;;;;;;9.90;4.77;;;;;;;-2.37;98.93;96907.47;5132935;27;20031;-69
2022/01/22 12:34:54;;;;;;;12.97;6.17;;;;;;;-2.28;98.35;96919.22;5132431;27;21081;-68
2022/01/22 12:37:22;;;;;;;9.77;5.17;;;;;;;-2.17;97.87;96919.75;5131857;27;20111;-68
2022/01/22 12:39:53;;;;;;;15.30;5.23;;;;;;;-2.26;96.83;96920.03;5132429;27;20395;-69
2022/01/22 12:42:32;;;;;;;7.20;4.43;;;;;;;-2.38;96.00;96931.56;5132293;27;20448;-69
2022/01/22 12:45:00;;;;;;;8.87;3.60;;;;;;;-2.42;95.33;96926.53;5112769;27;20042;-69
2022/01/22 12:47:28;;;;;;;6.80;3.27;;;;;;;-2.70;93.53;96936.00;5131440;27;20166;-69
2022/01/22 12:50:01;;;;;;;7.50;3.33;;;;;;;-2.64;93.18;96953.81;5131125;27;20119;-70
2022/01/22 12:52:28;;;;;;;3.53;2.00;;;;;;;-2.64;91.50;96953.81;5132409;27;20031;-70
2022/01/22 12:54:58;;;;;;;4.83;2.50;;;;;;;-2.05;88.45;96947.69;5131930;27;20138;-70
2022/01/22 12:57:29;;;;;;;6.13;2.50;;;;;;;-2.41;86.90;96956.56;5113227;27;20035;-70
2022/01/22 13:00:05;;;;;;;6.47;2.20;;;;;;;-2.70;86.66;96964.31;5131496;27;20039;-69
2022/01/22 13:02:40;;;;;;;3.23;1.70;;;;;;;-2.71;86.34;96978.06;5131748;27;20046;-69
2022/01/22 13:05:09;;;;;;;4.97;2.17;;;;;;;-2.71;86.32;96975.47;5130946;27;20039;-69
2022/01/22 13:08:02;;;;;;;5.00;1.40;;;;;;;-2.61;85.94;96976.91;5103503;27;20051;-70
2022/01/22 13:11:01;;;;;;;6.60;2.30;;;;;;;-2.52;85.32;96980.06;5116943;27;20138;-69